<?xml version="1.0" encoding="UTF-8" standalone="no" ?>
<gpx xmlns="http://www.topografix.com/GPX/1/1" xmlns:xsi="http://www.w3.org/2001/XMLSchema-instance" xsi:schemaLocation="http://www.topografix.com/GPX/1/1 http://www.topografix.com/GPX/1/1/gpx.xsd" version="1.1" creator="VisuGPX - https://www.visugpx.com">
  <metadata>
    <name>Les Lacs d'Hériménil - 13,5Km</name>
    <desc><![CDATA[Total: 0.8km]]></desc>
  </metadata>
  <trk>
    <name><![CDATA[9393472-Lacs d'Hériménil]]></name>
    <extensions>
      <line xmlns="http://www.topografix.com/GPX/gpx_style/0/2">
        <color>00FF00</color>
        <width>4</width>
      </line>
    </extensions>
    <trkseg>
      <trkpt lat="48.59203" lon="6.5151">
        <ele>234</ele>
        <time>2018-12-18T10:28:58Z</time>
      </trkpt>
      <trkpt lat="48.59183" lon="6.51979">
        <ele>236</ele>
        <time>2018-12-18T10:29:58Z</time>
      </trkpt>
      <trkpt lat="48.59121" lon="6.51977">
        <ele>234</ele>
        <time>2018-12-18T10:30:58Z</time>
      </trkpt>
      <trkpt lat="48.58899" lon="6.52143">
        <ele>235</ele>
        <time>2018-12-18T10:31:58Z</time>
      </trkpt>
      <trkpt lat="48.58761" lon="6.52135">
        <ele>235</ele>
        <time>2018-12-18T10:32:58Z</time>
      </trkpt>
      <trkpt lat="48.58743" lon="6.52149">
        <ele>235</ele>
        <time>2018-12-18T10:33:58Z</time>
      </trkpt>
      <trkpt lat="48.58733" lon="6.5217">
        <ele>235</ele>
        <time>2018-12-18T10:34:58Z</time>
      </trkpt>
      <trkpt lat="48.58552" lon="6.52425">
        <ele>235</ele>
        <time>2018-12-18T10:35:58Z</time>
      </trkpt>
      <trkpt lat="48.58333" lon="6.52522">
        <ele>234</ele>
        <time>2018-12-18T10:36:58Z</time>
      </trkpt>
      <trkpt lat="48.58176" lon="6.52665">
        <ele>235</ele>
        <time>2018-12-18T10:37:58Z</time>
      </trkpt>
      <trkpt lat="48.57989" lon="6.52357">
        <ele>233</ele>
        <time>2018-12-18T10:38:58Z</time>
      </trkpt>
      <trkpt lat="48.5797" lon="6.52354">
        <ele>232</ele>
        <time>2018-12-18T10:39:58Z</time>
      </trkpt>
      <trkpt lat="48.57826" lon="6.52542">
        <ele>232</ele>
        <time>2018-12-18T10:40:58Z</time>
      </trkpt>
      <trkpt lat="48.57813" lon="6.52553">
        <ele>232</ele>
        <time>2018-12-18T10:41:58Z</time>
      </trkpt>
      <trkpt lat="48.57776" lon="6.52516">
        <ele>231</ele>
        <time>2018-12-18T10:42:58Z</time>
      </trkpt>
      <trkpt lat="48.57749" lon="6.52465">
        <ele>230</ele>
        <time>2018-12-18T10:43:58Z</time>
      </trkpt>
      <trkpt lat="48.57723" lon="6.52456">
        <ele>229</ele>
        <time>2018-12-18T10:44:58Z</time>
      </trkpt>
      <trkpt lat="48.57686" lon="6.52509">
        <ele>229</ele>
        <time>2018-12-18T10:45:58Z</time>
      </trkpt>
      <trkpt lat="48.57434" lon="6.52774">
        <ele>229</ele>
        <time>2018-12-18T10:46:58Z</time>
      </trkpt>
      <trkpt lat="48.57345" lon="6.5287">
        <ele>229</ele>
        <time>2018-12-18T10:47:58Z</time>
      </trkpt>
      <trkpt lat="48.57224" lon="6.53052">
        <ele>226</ele>
        <time>2018-12-18T10:48:58Z</time>
      </trkpt>
      <trkpt lat="48.5721" lon="6.53033">
        <ele>225</ele>
        <time>2018-12-18T10:49:58Z</time>
      </trkpt>
      <trkpt lat="48.57148" lon="6.52871">
        <ele>224</ele>
        <time>2018-12-18T10:50:58Z</time>
      </trkpt>
      <trkpt lat="48.57134" lon="6.52833">
        <ele>224</ele>
        <time>2018-12-18T10:51:58Z</time>
      </trkpt>
      <trkpt lat="48.56837" lon="6.5273">
        <ele>226</ele>
        <time>2018-12-18T10:52:58Z</time>
      </trkpt>
      <trkpt lat="48.56855" lon="6.52673">
        <ele>226</ele>
        <time>2018-12-18T10:53:58Z</time>
      </trkpt>
      <trkpt lat="48.56885" lon="6.52371">
        <ele>225</ele>
        <time>2018-12-18T10:54:58Z</time>
      </trkpt>
      <trkpt lat="48.56881" lon="6.52343">
        <ele>225</ele>
        <time>2018-12-18T10:55:58Z</time>
      </trkpt>
      <trkpt lat="48.56904" lon="6.51952">
        <ele>224</ele>
        <time>2018-12-18T10:56:58Z</time>
      </trkpt>
      <trkpt lat="48.56895" lon="6.51941">
        <ele>224</ele>
        <time>2018-12-18T10:57:58Z</time>
      </trkpt>
      <trkpt lat="48.56659" lon="6.51741">
        <ele>224</ele>
        <time>2018-12-18T10:58:58Z</time>
      </trkpt>
      <trkpt lat="48.56635" lon="6.51709">
        <ele>224</ele>
        <time>2018-12-18T10:59:58Z</time>
      </trkpt>
      <trkpt lat="48.56532" lon="6.51622">
        <ele>224</ele>
        <time>2018-12-18T11:00:58Z</time>
      </trkpt>
      <trkpt lat="48.56598" lon="6.51277">
        <ele>222</ele>
        <time>2018-12-18T11:01:58Z</time>
      </trkpt>
      <trkpt lat="48.56689" lon="6.50898">
        <ele>224</ele>
        <time>2018-12-18T11:02:58Z</time>
      </trkpt>
      <trkpt lat="48.56551" lon="6.50705">
        <ele>231</ele>
        <time>2018-12-18T11:03:58Z</time>
      </trkpt>
      <trkpt lat="48.56561" lon="6.50654">
        <ele>232</ele>
        <time>2018-12-18T11:04:58Z</time>
      </trkpt>
      <trkpt lat="48.56578" lon="6.50591">
        <ele>233</ele>
        <time>2018-12-18T11:05:58Z</time>
      </trkpt>
      <trkpt lat="48.56642" lon="6.50406">
        <ele>236</ele>
        <time>2018-12-18T11:06:58Z</time>
      </trkpt>
      <trkpt lat="48.56628" lon="6.50366">
        <ele>237</ele>
        <time>2018-12-18T11:07:58Z</time>
      </trkpt>
      <trkpt lat="48.56614" lon="6.50321">
        <ele>239</ele>
        <time>2018-12-18T11:08:58Z</time>
      </trkpt>
      <trkpt lat="48.56653" lon="6.50231">
        <ele>238</ele>
        <time>2018-12-18T11:09:58Z</time>
      </trkpt>
      <trkpt lat="48.56663" lon="6.50198">
        <ele>238</ele>
        <time>2018-12-18T11:10:58Z</time>
      </trkpt>
      <trkpt lat="48.5669" lon="6.50184">
        <ele>235</ele>
        <time>2018-12-18T11:11:58Z</time>
      </trkpt>
      <trkpt lat="48.56738" lon="6.50071">
        <ele>234</ele>
        <time>2018-12-18T11:12:58Z</time>
      </trkpt>
      <trkpt lat="48.56752" lon="6.50089">
        <ele>232</ele>
        <time>2018-12-18T11:13:58Z</time>
      </trkpt>
      <trkpt lat="48.56773" lon="6.50009">
        <ele>233</ele>
        <time>2018-12-18T11:14:58Z</time>
      </trkpt>
      <trkpt lat="48.56809" lon="6.49976">
        <ele>231</ele>
        <time>2018-12-18T11:15:58Z</time>
      </trkpt>
      <trkpt lat="48.56876" lon="6.49843">
        <ele>231</ele>
        <time>2018-12-18T11:16:58Z</time>
      </trkpt>
      <trkpt lat="48.56907" lon="6.4984">
        <ele>226</ele>
        <time>2018-12-18T11:17:58Z</time>
      </trkpt>
      <trkpt lat="48.56999" lon="6.49883">
        <ele>222</ele>
        <time>2018-12-18T11:18:58Z</time>
      </trkpt>
      <trkpt lat="48.57035" lon="6.49908">
        <ele>222</ele>
        <time>2018-12-18T11:19:58Z</time>
      </trkpt>
      <trkpt lat="48.5707" lon="6.49954">
        <ele>222</ele>
        <time>2018-12-18T11:20:58Z</time>
      </trkpt>
      <trkpt lat="48.57148" lon="6.49986">
        <ele>223</ele>
        <time>2018-12-18T11:21:58Z</time>
      </trkpt>
      <trkpt lat="48.57168" lon="6.50096">
        <ele>222</ele>
        <time>2018-12-18T11:22:58Z</time>
      </trkpt>
      <trkpt lat="48.57185" lon="6.50125">
        <ele>222</ele>
        <time>2018-12-18T11:23:58Z</time>
      </trkpt>
      <trkpt lat="48.57212" lon="6.50127">
        <ele>223</ele>
        <time>2018-12-18T11:24:58Z</time>
      </trkpt>
      <trkpt lat="48.57188" lon="6.50008">
        <ele>224</ele>
        <time>2018-12-18T11:25:58Z</time>
      </trkpt>
      <trkpt lat="48.57259" lon="6.50033">
        <ele>225</ele>
        <time>2018-12-18T11:26:58Z</time>
      </trkpt>
      <trkpt lat="48.57285" lon="6.50006">
        <ele>224</ele>
        <time>2018-12-18T11:27:58Z</time>
      </trkpt>
      <trkpt lat="48.57373" lon="6.49913">
        <ele>221</ele>
        <time>2018-12-18T11:28:58Z</time>
      </trkpt>
      <trkpt lat="48.57437" lon="6.49879">
        <ele>220</ele>
        <time>2018-12-18T11:29:58Z</time>
      </trkpt>
      <trkpt lat="48.57559" lon="6.4985">
        <ele>221</ele>
        <time>2018-12-18T11:30:58Z</time>
      </trkpt>
      <trkpt lat="48.57604" lon="6.49864">
        <ele>222</ele>
        <time>2018-12-18T11:31:58Z</time>
      </trkpt>
      <trkpt lat="48.57664" lon="6.49904">
        <ele>221</ele>
        <time>2018-12-18T11:32:58Z</time>
      </trkpt>
      <trkpt lat="48.57725" lon="6.49921">
        <ele>220</ele>
        <time>2018-12-18T11:33:58Z</time>
      </trkpt>
      <trkpt lat="48.57757" lon="6.4986">
        <ele>219</ele>
        <time>2018-12-18T11:34:58Z</time>
      </trkpt>
      <trkpt lat="48.57767" lon="6.49715">
        <ele>221</ele>
        <time>2018-12-18T11:35:58Z</time>
      </trkpt>
      <trkpt lat="48.57784" lon="6.49574">
        <ele>221</ele>
        <time>2018-12-18T11:36:58Z</time>
      </trkpt>
      <trkpt lat="48.57807" lon="6.49461">
        <ele>219</ele>
        <time>2018-12-18T11:37:58Z</time>
      </trkpt>
      <trkpt lat="48.57821" lon="6.49365">
        <ele>218</ele>
        <time>2018-12-18T11:38:58Z</time>
      </trkpt>
      <trkpt lat="48.57841" lon="6.49279">
        <ele>220</ele>
        <time>2018-12-18T11:39:58Z</time>
      </trkpt>
      <trkpt lat="48.57861" lon="6.49209">
        <ele>221</ele>
        <time>2018-12-18T11:40:58Z</time>
      </trkpt>
      <trkpt lat="48.5785" lon="6.49094">
        <ele>221</ele>
        <time>2018-12-18T11:41:58Z</time>
      </trkpt>
      <trkpt lat="48.57852" lon="6.49047">
        <ele>221</ele>
        <time>2018-12-18T11:42:58Z</time>
      </trkpt>
      <trkpt lat="48.57929" lon="6.48769">
        <ele>221</ele>
        <time>2018-12-18T11:43:58Z</time>
      </trkpt>
      <trkpt lat="48.57923" lon="6.48684">
        <ele>221</ele>
        <time>2018-12-18T11:44:58Z</time>
      </trkpt>
      <trkpt lat="48.57938" lon="6.48616">
        <ele>221</ele>
        <time>2018-12-18T11:45:58Z</time>
      </trkpt>
      <trkpt lat="48.58038" lon="6.48388">
        <ele>220</ele>
        <time>2018-12-18T11:46:58Z</time>
      </trkpt>
      <trkpt lat="48.58066" lon="6.48391">
        <ele>221</ele>
        <time>2018-12-18T11:47:58Z</time>
      </trkpt>
      <trkpt lat="48.58126" lon="6.48458">
        <ele>220</ele>
        <time>2018-12-18T11:48:58Z</time>
      </trkpt>
      <trkpt lat="48.58154" lon="6.48404">
        <ele>219</ele>
        <time>2018-12-18T11:49:58Z</time>
      </trkpt>
      <trkpt lat="48.58111" lon="6.48354">
        <ele>220</ele>
        <time>2018-12-18T11:50:58Z</time>
      </trkpt>
      <trkpt lat="48.58104" lon="6.48321">
        <ele>220</ele>
        <time>2018-12-18T11:51:58Z</time>
      </trkpt>
      <trkpt lat="48.58109" lon="6.48232">
        <ele>220</ele>
        <time>2018-12-18T11:52:58Z</time>
      </trkpt>
      <trkpt lat="48.58126" lon="6.48178">
        <ele>220</ele>
        <time>2018-12-18T11:53:58Z</time>
      </trkpt>
      <trkpt lat="48.58137" lon="6.48121">
        <ele>221</ele>
        <time>2018-12-18T11:54:58Z</time>
      </trkpt>
      <trkpt lat="48.58136" lon="6.48103">
        <ele>221</ele>
        <time>2018-12-18T11:55:58Z</time>
      </trkpt>
      <trkpt lat="48.58297" lon="6.48128">
        <ele>222</ele>
        <time>2018-12-18T11:56:58Z</time>
      </trkpt>
      <trkpt lat="48.58442" lon="6.48208">
        <ele>225</ele>
        <time>2018-12-18T11:57:58Z</time>
      </trkpt>
      <trkpt lat="48.58524" lon="6.48255">
        <ele>225</ele>
        <time>2018-12-18T11:58:58Z</time>
      </trkpt>
      <trkpt lat="48.58585" lon="6.48129">
        <ele>223</ele>
        <time>2018-12-18T11:59:58Z</time>
      </trkpt>
      <trkpt lat="48.58669" lon="6.47997">
        <ele>223</ele>
        <time>2018-12-18T12:00:58Z</time>
      </trkpt>
      <trkpt lat="48.58728" lon="6.47935">
        <ele>221</ele>
        <time>2018-12-18T12:01:58Z</time>
      </trkpt>
      <trkpt lat="48.5875" lon="6.48099">
        <ele>222</ele>
        <time>2018-12-18T12:02:58Z</time>
      </trkpt>
      <trkpt lat="48.58749" lon="6.48127">
        <ele>221</ele>
        <time>2018-12-18T12:03:58Z</time>
      </trkpt>
      <trkpt lat="48.58753" lon="6.48166">
        <ele>221</ele>
        <time>2018-12-18T12:04:58Z</time>
      </trkpt>
      <trkpt lat="48.58787" lon="6.48194">
        <ele>220</ele>
        <time>2018-12-18T12:05:58Z</time>
      </trkpt>
      <trkpt lat="48.58816" lon="6.48229">
        <ele>219</ele>
        <time>2018-12-18T12:06:58Z</time>
      </trkpt>
      <trkpt lat="48.58811" lon="6.4824">
        <ele>220</ele>
        <time>2018-12-18T12:07:58Z</time>
      </trkpt>
      <trkpt lat="48.58884" lon="6.48347">
        <ele>220</ele>
        <time>2018-12-18T12:08:58Z</time>
      </trkpt>
      <trkpt lat="48.58991" lon="6.48455">
        <ele>220</ele>
        <time>2018-12-18T12:09:58Z</time>
      </trkpt>
      <trkpt lat="48.59001" lon="6.48636">
        <ele>222</ele>
        <time>2018-12-18T12:10:58Z</time>
      </trkpt>
      <trkpt lat="48.59015" lon="6.48664">
        <ele>223</ele>
        <time>2018-12-18T12:11:58Z</time>
      </trkpt>
      <trkpt lat="48.59015" lon="6.48642">
        <ele>222</ele>
        <time>2018-12-18T12:12:58Z</time>
      </trkpt>
      <trkpt lat="48.59088" lon="6.48575">
        <ele>222</ele>
        <time>2018-12-18T12:13:58Z</time>
      </trkpt>
      <trkpt lat="48.59253" lon="6.48437">
        <ele>220</ele>
        <time>2018-12-18T12:14:58Z</time>
      </trkpt>
      <trkpt lat="48.59295" lon="6.48415">
        <ele>221</ele>
        <time>2018-12-18T12:15:58Z</time>
      </trkpt>
      <trkpt lat="48.59329" lon="6.48412">
        <ele>221</ele>
        <time>2018-12-18T12:16:58Z</time>
      </trkpt>
      <trkpt lat="48.59341" lon="6.48447">
        <ele>220</ele>
        <time>2018-12-18T12:17:58Z</time>
      </trkpt>
      <trkpt lat="48.5935" lon="6.48509">
        <ele>220</ele>
        <time>2018-12-18T12:18:58Z</time>
      </trkpt>
      <trkpt lat="48.59362" lon="6.48568">
        <ele>220</ele>
        <time>2018-12-18T12:19:58Z</time>
      </trkpt>
      <trkpt lat="48.59378" lon="6.48617">
        <ele>221</ele>
        <time>2018-12-18T12:20:58Z</time>
      </trkpt>
      <trkpt lat="48.5939" lon="6.48646">
        <ele>221</ele>
        <time>2018-12-18T12:21:58Z</time>
      </trkpt>
      <trkpt lat="48.59432" lon="6.48663">
        <ele>221</ele>
        <time>2018-12-18T12:22:58Z</time>
      </trkpt>
      <trkpt lat="48.59483" lon="6.48701">
        <ele>221</ele>
        <time>2018-12-18T12:23:58Z</time>
      </trkpt>
      <trkpt lat="48.59519" lon="6.48679">
        <ele>220</ele>
        <time>2018-12-18T12:24:58Z</time>
      </trkpt>
      <trkpt lat="48.59551" lon="6.48917">
        <ele>224</ele>
        <time>2018-12-18T12:25:58Z</time>
      </trkpt>
      <trkpt lat="48.59557" lon="6.48963">
        <ele>223</ele>
        <time>2018-12-18T12:26:58Z</time>
      </trkpt>
      <trkpt lat="48.5957" lon="6.48988">
        <ele>222</ele>
        <time>2018-12-18T12:27:58Z</time>
      </trkpt>
      <trkpt lat="48.59587" lon="6.49123">
        <ele>222</ele>
        <time>2018-12-18T12:28:58Z</time>
      </trkpt>
      <trkpt lat="48.59587" lon="6.49174">
        <ele>221</ele>
        <time>2018-12-18T12:29:58Z</time>
      </trkpt>
      <trkpt lat="48.59601" lon="6.49403">
        <ele>223</ele>
        <time>2018-12-18T12:30:58Z</time>
      </trkpt>
      <trkpt lat="48.59625" lon="6.49809">
        <ele>225</ele>
        <time>2018-12-18T12:31:58Z</time>
      </trkpt>
      <trkpt lat="48.59638" lon="6.49846">
        <ele>225</ele>
        <time>2018-12-18T12:32:58Z</time>
      </trkpt>
      <trkpt lat="48.5964" lon="6.49861">
        <ele>225</ele>
        <time>2018-12-18T12:33:58Z</time>
      </trkpt>
      <trkpt lat="48.59622" lon="6.49871">
        <ele>227</ele>
        <time>2018-12-18T12:34:58Z</time>
      </trkpt>
      <trkpt lat="48.59598" lon="6.49883">
        <ele>228</ele>
        <time>2018-12-18T12:35:58Z</time>
      </trkpt>
      <trkpt lat="48.5958" lon="6.49883">
        <ele>229</ele>
        <time>2018-12-18T12:36:58Z</time>
      </trkpt>
      <trkpt lat="48.59527" lon="6.49935">
        <ele>231</ele>
        <time>2018-12-18T12:37:58Z</time>
      </trkpt>
      <trkpt lat="48.59523" lon="6.49963">
        <ele>232</ele>
        <time>2018-12-18T12:38:58Z</time>
      </trkpt>
      <trkpt lat="48.59512" lon="6.49984">
        <ele>232</ele>
        <time>2018-12-18T12:39:58Z</time>
      </trkpt>
      <trkpt lat="48.59501" lon="6.49989">
        <ele>232</ele>
        <time>2018-12-18T12:40:58Z</time>
      </trkpt>
      <trkpt lat="48.5948" lon="6.4998">
        <ele>232</ele>
        <time>2018-12-18T12:41:58Z</time>
      </trkpt>
      <trkpt lat="48.59424" lon="6.50107">
        <ele>232</ele>
        <time>2018-12-18T12:42:58Z</time>
      </trkpt>
      <trkpt lat="48.5936" lon="6.50262">
        <ele>234</ele>
        <time>2018-12-18T12:43:58Z</time>
      </trkpt>
      <trkpt lat="48.59356" lon="6.50287">
        <ele>233</ele>
        <time>2018-12-18T12:44:58Z</time>
      </trkpt>
      <trkpt lat="48.59354" lon="6.50304">
        <ele>233</ele>
        <time>2018-12-18T12:45:58Z</time>
      </trkpt>
      <trkpt lat="48.59311" lon="6.50313">
        <ele>233</ele>
        <time>2018-12-18T12:46:58Z</time>
      </trkpt>
      <trkpt lat="48.5931" lon="6.50329">
        <ele>232</ele>
        <time>2018-12-18T12:47:58Z</time>
      </trkpt>
      <trkpt lat="48.59296" lon="6.50344">
        <ele>233</ele>
        <time>2018-12-18T12:48:58Z</time>
      </trkpt>
      <trkpt lat="48.59225" lon="6.50994">
        <ele>234</ele>
        <time>2018-12-18T12:49:58Z</time>
      </trkpt>
      <trkpt lat="48.59228" lon="6.51016">
        <ele>234</ele>
        <time>2018-12-18T12:50:58Z</time>
      </trkpt>
      <trkpt lat="48.5922" lon="6.51031">
        <ele>235</ele>
        <time>2018-12-18T12:51:58Z</time>
      </trkpt>
      <trkpt lat="48.59209" lon="6.51068">
        <ele>235</ele>
        <time>2018-12-18T12:52:58Z</time>
      </trkpt>
      <trkpt lat="48.59211" lon="6.5121">
        <ele>235</ele>
        <time>2018-12-18T12:53:58Z</time>
      </trkpt>
      <trkpt lat="48.59204" lon="6.5151">
        <ele>234</ele>
        <time>2018-12-18T12:54:58Z</time>
      </trkpt>
    </trkseg>
  </trk>
</gpx>